Time;durP1;ratioP1;P1;durP2;ratioP2;P2;SDS_P1;SDS_P2;PMS_P1;PMS_P2;Temp;Humidity;BMP_temperature;BMP_pressure;BME280_temperature;BME280_humidity;BME280_pressure;Samples;Min_cycle;Max_cycle;Signal;HPM_P1;HPM_P2
2023/05/25 00:00:19;;;;;;;12.95;5.47;;;;;;;7.86;100.00;101877.63;6026040;28;20089;-67
2023/05/25 00:03:15;;;;;;;20.13;6.70;;;;;;;7.79;100.00;101875.41;6025785;28;20030;-67
2023/05/25 00:06:11;;;;;;;22.50;6.67;;;;;;;7.60;100.00;101868.78;6025288;28;20282;-68
2023/05/25 00:09:06;;;;;;;19.70;6.38;;;;;;;7.51;100.00;101858.81;6008553;28;20053;-67
2023/05/25 00:12:02;;;;;;;17.13;6.60;;;;;;;7.47;100.00;101860.81;6025992;28;20022;-67
2023/05/25 00:14:57;;;;;;;15.25;5.78;;;;;;;7.50;100.00;101857.13;6025166;28;20030;-68
2023/05/25 00:17:53;;;;;;;12.93;5.88;;;;;;;7.59;100.00;101867.94;6017314;28;20035;-67
2023/05/25 00:20:49;;;;;;;17.73;6.60;;;;;;;7.67;100.00;101880.63;6023426;28;20099;-67
2023/05/25 00:23:45;;;;;;;19.40;6.75;;;;;;;7.51;100.00;101870.22;6022235;28;20023;-67
2023/05/25 00:26:40;;;;;;;16.80;7.07;;;;;;;7.40;100.00;101866.56;6020758;28;20041;-67
2023/05/25 00:29:35;;;;;;;12.03;4.93;;;;;;;7.27;100.00;101879.69;6025746;28;20042;-68
2023/05/25 00:32:30;;;;;;;15.30;5.53;;;;;;;7.04;100.00;101867.06;6025910;28;20054;-67
2023/05/25 00:35:26;;;;;;;15.60;5.70;;;;;;;6.94;100.00;101864.16;6025203;28;20030;-68
2023/05/25 00:38:21;;;;;;;15.77;6.27;;;;;;;6.87;100.00;101870.78;6025341;28;20281;-66
2023/05/25 00:41:17;;;;;;;22.10;7.80;;;;;;;6.81;100.00;101857.97;6019700;28;20037;-67
2023/05/25 00:44:13;;;;;;;19.70;5.82;;;;;;;7.23;100.00;101858.88;6025039;28;20037;-67
2023/05/25 00:47:10;;;;;;;14.52;6.47;;;;;;;7.56;100.00;101857.56;6022882;28;20462;-67
2023/05/25 00:50:08;;;;;;;14.15;6.57;;;;;;;7.36;100.00;101876.47;6025540;28;20072;-67
2023/05/25 00:53:07;;;;;;;15.27;6.15;;;;;;;7.09;100.00;101879.03;6022614;28;20374;-66
2023/05/25 00:56:18;;;;;;;19.73;5.85;;;;;;;6.92;100.00;101884.50;6017384;28;20080;-68
2023/05/25 00:59:16;;;;;;;19.13;5.43;;;;;;;6.89;100.00;101878.56;6030274;28;20065;-67
2023/05/25 01:02:15;;;;;;;20.65;6.85;;;;;;;7.28;100.00;101868.19;6025564;28;20022;-67
2023/05/25 01:05:11;;;;;;;16.77;7.13;;;;;;;7.14;100.00;101881.41;6024478;28;20038;-68
2023/05/25 01:08:07;;;;;;;15.75;6.55;;;;;;;7.35;100.00;101863.38;6020103;28;20130;-67
2023/05/25 01:11:03;;;;;;;18.58;7.05;;;;;;;7.61;100.00;101870.50;6019566;28;20492;-67
2023/05/25 01:13:59;;;;;;;18.92;6.25;;;;;;;7.02;100.00;101861.03;6021251;28;20038;-66
2023/05/25 01:16:55;;;;;;;16.30;6.03;;;;;;;7.02;100.00;101877.72;6028711;28;20049;-67
2023/05/25 01:19:51;;;;;;;23.13;5.93;;;;;;;6.66;100.00;101864.13;6051697;28;20028;-67
2023/05/25 01:22:50;;;;;;;13.63;6.07;;;;;;;6.60;100.00;101886.44;6053224;28;20075;-67
2023/05/25 01:25:50;;;;;;;19.55;6.40;;;;;;;6.95;100.00;101884.31;6051020;28;20037;-66
2023/05/25 01:28:49;;;;;;;17.55;6.40;;;;;;;7.00;100.00;101857.66;6050314;28;20017;-68
2023/05/25 01:31:44;;;;;;;18.38;6.80;;;;;;;7.17;100.00;101862.75;6032456;28;20045;-66
2023/05/25 01:34:42;;;;;;;13.82;6.88;;;;;;;6.66;100.00;101861.50;6027197;28;20482;-67
2023/05/25 01:37:40;;;;;;;14.90;5.85;;;;;;;6.55;100.00;101875.34;6025511;28;20031;-67
2023/05/25 01:40:36;;;;;;;12.27;5.60;;;;;;;6.39;100.00;101873.69;6027577;28;20386;-68
2023/05/25 01:43:31;;;;;;;14.57;6.20;;;;;;;6.37;100.00;101870.31;6027011;28;20060;-67
2023/05/25 01:46:35;;;;;;;14.50;6.07;;;;;;;6.56;100.00;101878.81;6029687;28;20030;-69
2023/05/25 01:49:43;;;;;;;20.30;6.35;;;;;;;6.69;100.00;101874.50;6051506;28;20457;-67
2023/05/25 01:52:44;;;;;;;20.83;7.20;;;;;;;6.34;100.00;101871.34;6026969;28;20042;-68
2023/05/25 01:55:47;;;;;;;20.75;6.15;;;;;;;6.41;100.00;101866.56;6026666;28;20545;-67
2023/05/25 01:58:43;;;;;;;18.20;6.45;;;;;;;6.33;100.00;101884.63;6024133;28;20113;-66
2023/05/25 02:01:39;;;;;;;19.65;6.78;;;;;;;6.12;100.00;101877.94;6018045;28;20034;-68
2023/05/25 02:04:35;;;;;;;17.77;6.90;;;;;;;6.39;100.00;101877.19;6038430;28;20463;-68
2023/05/25 02:07:30;;;;;;;15.40;6.47;;;;;;;6.34;100.00;101881.03;6028314;28;20052;-67
2023/05/25 02:10:25;;;;;;;20.37;7.87;;;;;;;6.25;100.00;101879.78;6028570;28;20125;-66
2023/05/25 02:13:21;;;;;;;20.93;6.87;;;;;;;6.14;100.00;101891.88;6028006;28;20042;-68
2023/05/25 02:16:16;;;;;;;21.00;7.03;;;;;;;5.99;100.00;101878.66;6024108;28;20056;-67
2023/05/25 02:19:13;;;;;;;17.33;7.13;;;;;;;6.49;100.00;101882.78;6025149;28;20022;-67
2023/05/25 02:22:09;;;;;;;21.38;7.75;;;;;;;6.89;100.00;101879.41;6028040;28;20026;-66
2023/05/25 02:25:04;;;;;;;22.43;8.27;;;;;;;6.91;100.00;101872.25;6027329;28;20049;-66
2023/05/25 02:28:00;;;;;;;24.40;8.50;;;;;;;6.50;100.00;101864.22;6028065;28;20262;-66
2023/05/25 02:30:55;;;;;;;18.38;6.60;;;;;;;6.10;100.00;101864.03;6026638;28;20458;-67
2023/05/25 02:33:50;;;;;;;19.15;6.10;;;;;;;5.92;100.00;101871.22;6017341;28;20030;-68
2023/05/25 02:36:46;;;;;;;16.98;7.18;;;;;;;5.87;100.00;101858.28;6027657;28;20034;-68
2023/05/25 02:39:41;;;;;;;16.67;7.17;;;;;;;5.87;100.00;101878.53;6027736;28;20030;-67
2023/05/25 02:42:36;;;;;;;21.33;7.80;;;;;;;6.37;100.00;101894.03;6027645;28;20026;-67
2023/05/25 02:45:32;;;;;;;18.90;7.00;;;;;;;6.16;100.00;101903.19;6028024;28;20034;-68
2023/05/25 02:48:27;;;;;;;18.50;6.95;;;;;;;5.96;100.00;101902.53;6025785;28;20033;-67
2023/05/25 02:51:22;;;;;;;17.67;7.33;;;;;;;5.75;100.00;101906.34;6026815;28;20417;-67
2023/05/25 02:54:17;;;;;;;16.37;6.17;;;;;;;5.78;100.00;101906.19;6025442;28;20044;-66
2023/05/25 02:57:13;;;;;;;19.63;7.33;;;;;;;6.16;100.00;101908.44;6015944;28;20038;-67
2023/05/25 03:00:11;;;;;;;19.80;6.93;;;;;;;5.85;100.00;101902.28;6005803;28;20689;-68
2023/05/25 03:03:06;;;;;;;22.63;7.47;;;;;;;5.88;100.00;101901.25;6034755;28;20036;-67
2023/05/25 03:06:03;;;;;;;16.60;6.57;;;;;;;6.22;100.00;101908.09;6049401;28;20029;-68
2023/05/25 03:08:58;;;;;;;23.05;7.75;;;;;;;6.79;100.00;101902.03;6027105;28;20026;-68
2023/05/25 03:11:53;;;;;;;26.10;7.83;;;;;;;6.69;100.00;101890.31;6026786;28;20030;-68
2023/05/25 03:14:49;;;;;;;20.95;7.63;;;;;;;6.53;100.00;101900.06;6026602;28;20030;-67
2023/05/25 03:17:44;;;;;;;23.47;8.27;;;;;;;6.46;100.00;101901.38;6021009;28;20038;-68
2023/05/25 03:20:41;;;;;;;24.05;8.20;;;;;;;6.45;100.00;101904.94;6021917;28;20365;-68
2023/05/25 03:23:36;;;;;;;18.65;7.15;;;;;;;6.40;100.00;101904.38;6025168;28;20030;-68
2023/05/25 03:26:32;;;;;;;25.40;8.30;;;;;;;6.33;100.00;101910.97;6027052;28;20181;-67
2023/05/25 03:29:27;;;;;;;17.52;7.95;;;;;;;6.34;100.00;101910.84;6026750;28;20457;-68
2023/05/25 03:32:22;;;;;;;24.20;8.82;;;;;;;6.40;100.00;101909.66;6026570;28;20425;-67
2023/05/25 03:35:18;;;;;;;19.10;6.65;;;;;;;6.30;100.00;101909.34;6025815;28;20425;-67
2023/05/25 03:38:13;;;;;;;19.70;7.43;;;;;;;6.47;100.00;101916.25;6026539;28;20018;-68
2023/05/25 03:41:08;;;;;;;21.13;8.90;;;;;;;6.32;100.00;101922.41;6025928;28;20154;-69
2023/05/25 03:44:04;;;;;;;21.37;7.70;;;;;;;6.33;100.00;101930.22;6025932;28;20043;-67
2023/05/25 03:46:59;;;;;;;24.70;8.27;;;;;;;6.43;100.00;101915.59;6011041;28;20048;-68
2023/05/25 03:49:55;;;;;;;24.02;8.45;;;;;;;6.54;100.00;101933.41;6022159;28;20482;-69
2023/05/25 03:52:50;;;;;;;23.70;8.30;;;;;;;6.60;100.00;101928.59;6014404;28;20030;-67
2023/05/25 03:55:45;;;;;;;35.07;9.73;;;;;;;6.69;100.00;101927.22;6025341;28;20264;-67
2023/05/25 03:58:41;;;;;;;27.42;9.48;;;;;;;6.83;100.00;101942.22;6021147;28;20033;-68
2023/05/25 04:01:37;;;;;;;27.92;9.65;;;;;;;6.89;100.00;101934.78;6027315;28;20096;-68
2023/05/25 04:04:33;;;;;;;23.88;9.23;;;;;;;6.99;100.00;101925.38;6022312;28;20042;-67
2023/05/25 04:07:29;;;;;;;24.75;8.98;;;;;;;7.14;100.00;101945.56;6026232;28;20033;-67
2023/05/25 04:10:25;;;;;;;23.58;8.52;;;;;;;7.23;100.00;101938.03;6023381;28;20042;-67
2023/05/25 04:13:20;;;;;;;25.23;9.43;;;;;;;7.28;100.00;101933.31;6024699;28;20034;-68
2023/05/25 04:16:15;;;;;;;25.83;9.30;;;;;;;7.32;100.00;101926.88;6027704;28;20030;-66
2023/05/25 04:19:11;;;;;;;28.27;10.23;;;;;;;7.44;100.00;101936.69;6029114;28;20298;-68
2023/05/25 04:22:06;;;;;;;21.07;8.77;;;;;;;7.65;100.00;101946.75;6039120;28;20101;-69
2023/05/25 04:25:02;;;;;;;21.97;7.70;;;;;;;7.63;100.00;101932.78;6033442;28;20289;-69
2023/05/25 04:27:57;;;;;;;23.60;8.40;;;;;;;7.79;100.00;101952.00;6030316;28;20077;-68
2023/05/25 04:30:55;;;;;;;22.30;8.57;;;;;;;7.74;100.00;101945.31;6025817;28;20030;-69
2023/05/25 04:33:51;;;;;;;25.23;9.73;;;;;;;7.80;100.00;101945.75;6029659;28;20041;-70
2023/05/25 04:36:46;;;;;;;21.60;8.70;;;;;;;7.82;100.00;101948.31;6030413;28;20026;-66
2023/05/25 04:39:42;;;;;;;25.83;8.57;;;;;;;7.99;100.00;101960.44;6018886;28;20184;-67
2023/05/25 04:42:38;;;;;;;24.50;8.77;;;;;;;7.97;100.00;101968.44;6014602;28;20042;-67
2023/05/25 04:45:33;;;;;;;23.85;8.30;;;;;;;7.80;100.00;101936.97;6024624;28;20377;-67
2023/05/25 04:48:31;;;;;;;22.13;8.57;;;;;;;7.81;100.00;101943.97;6025576;28;20034;-68
2023/05/25 04:51:26;;;;;;;23.80;8.38;;;;;;;8.01;100.00;101962.03;6009959;28;20022;-66
2023/05/25 04:54:22;;;;;;;24.43;7.97;;;;;;;7.94;100.00;101957.22;6020106;28;20068;-67
2023/05/25 04:57:17;;;;;;;22.20;8.63;;;;;;;8.04;100.00;101964.47;6029442;28;20034;-67
2023/05/25 05:00:14;;;;;;;23.20;8.40;;;;;;;8.02;100.00;101949.66;6025128;28;20089;-69
2023/05/25 05:03:09;;;;;;;18.67;7.72;;;;;;;8.16;100.00;101968.09;6029303;28;20033;-68
2023/05/25 05:06:05;;;;;;;22.63;7.88;;;;;;;8.18;100.00;101964.41;6024474;28;20030;-69
2023/05/25 05:09:00;;;;;;;21.33;9.13;;;;;;;8.27;100.00;101985.00;6028346;28;20473;-67
2023/05/25 05:11:56;;;;;;;20.58;9.18;;;;;;;8.23;100.00;101979.97;6027817;28;20257;-67
2023/05/25 05:14:51;;;;;;;25.30;8.80;;;;;;;8.10;100.00;101974.63;6028049;28;20122;-68
2023/05/25 05:17:47;;;;;;;18.73;7.43;;;;;;;8.12;100.00;101972.75;6027894;28;20501;-68
2023/05/25 05:20:43;;;;;;;23.57;8.20;;;;;;;8.20;100.00;101986.31;6027621;28;20044;-67
2023/05/25 05:23:41;;;;;;;19.80;7.68;;;;;;;8.36;100.00;101991.47;6030149;28;20061;-67
2023/05/25 05:26:38;;;;;;;27.20;9.23;;;;;;;8.43;100.00;101997.19;6033024;28;20038;-67
2023/05/25 05:29:33;;;;;;;19.48;7.82;;;;;;;8.26;100.00;101980.59;6021297;28;20027;-67
2023/05/25 05:32:29;;;;;;;21.63;7.87;;;;;;;8.49;100.00;101988.84;6024473;28;20073;-66
2023/05/25 05:35:24;;;;;;;19.77;7.70;;;;;;;8.57;100.00;101989.19;6027490;28;20022;-67
2023/05/25 05:38:20;;;;;;;23.30;8.27;;;;;;;8.63;100.00;101983.50;6029021;28;20029;-68
2023/05/25 05:41:15;;;;;;;16.55;7.93;;;;;;;8.88;100.00;101999.44;6022155;28;20285;-67
2023/05/25 05:44:11;;;;;;;22.47;8.57;;;;;;;8.86;100.00;101985.44;6032206;28;20041;-66
2023/05/25 05:47:06;;;;;;;19.02;8.50;;;;;;;8.89;100.00;101983.44;6026332;28;20030;-67
2023/05/25 05:50:02;;;;;;;16.50;7.10;;;;;;;8.84;100.00;101993.50;6025415;28;20030;-68
2023/05/25 05:52:57;;;;;;;18.92;6.93;;;;;;;8.82;100.00;101998.06;6021412;28;20026;-67
2023/05/25 05:55:57;;;;;;;18.50;7.70;;;;;;;8.85;100.00;101986.41;6026031;28;20108;-68
2023/05/25 05:58:53;;;;;;;16.20;6.97;;;;;;;8.95;100.00;102000.69;6025518;28;20351;-68
2023/05/25 06:01:48;;;;;;;19.95;8.02;;;;;;;8.97;100.00;102004.94;6034008;28;20033;-68
2023/05/25 06:04:44;;;;;;;16.83;7.88;;;;;;;9.02;100.00;102003.78;6020488;28;20395;-68
2023/05/25 06:07:39;;;;;;;20.75;7.55;;;;;;;9.18;100.00;102013.22;6032221;28;20022;-68
2023/05/25 06:10:35;;;;;;;18.07;6.87;;;;;;;9.29;100.00;102020.44;6028928;28;20026;-67
2023/05/25 06:13:30;;;;;;;18.30;7.37;;;;;;;9.31;100.00;102037.03;6028156;28;20041;-67
2023/05/25 06:16:25;;;;;;;15.37;6.80;;;;;;;9.41;100.00;102038.94;6031283;28;20759;-67
2023/05/25 06:19:21;;;;;;;19.13;7.53;;;;;;;9.40;100.00;102039.88;6041721;28;20023;-67
2023/05/25 06:22:16;;;;;;;18.08;7.55;;;;;;;9.32;100.00;102054.63;6032659;28;20032;-68
2023/05/25 06:25:12;;;;;;;17.50;8.07;;;;;;;9.20;100.00;102051.00;6035812;28;20042;-68
2023/05/25 06:28:08;;;;;;;18.70;7.05;;;;;;;9.00;100.00;102046.22;6030615;28;20438;-69
2023/05/25 06:31:03;;;;;;;19.25;7.25;;;;;;;9.07;100.00;102068.69;6038221;28;20034;-66
2023/05/25 06:33:58;;;;;;;19.77;7.70;;;;;;;9.04;100.00;102066.22;6023578;28;20034;-69
2023/05/25 06:36:54;;;;;;;16.80;6.87;;;;;;;9.02;100.00;102054.91;6037083;28;20038;-68
2023/05/25 06:39:50;;;;;;;17.08;7.03;;;;;;;9.09;100.00;102052.69;6016646;28;20060;-67
2023/05/25 06:42:45;;;;;;;19.13;7.27;;;;;;;9.14;100.00;102054.06;6034967;28;20041;-67
2023/05/25 06:45:40;;;;;;;18.43;7.47;;;;;;;9.24;100.00;102051.66;6021553;28;20041;-67
2023/05/25 06:48:38;;;;;;;19.87;7.80;;;;;;;9.24;100.00;102059.59;6030414;28;20462;-67
2023/05/25 06:51:33;;;;;;;17.65;7.95;;;;;;;9.46;100.00;102063.31;6025450;28;20030;-66
2023/05/25 06:54:28;;;;;;;16.23;6.70;;;;;;;9.35;100.00;102062.34;6019400;28;20064;-68
2023/05/25 06:57:23;;;;;;;22.60;8.27;;;;;;;9.55;100.00;102075.06;6021822;28;20478;-67
2023/05/25 07:00:20;;;;;;;18.63;7.03;;;;;;;9.73;100.00;102083.56;6015626;28;20073;-69
2023/05/25 07:03:15;;;;;;;18.70;6.90;;;;;;;9.80;100.00;102088.31;6025035;28;20284;-68
2023/05/25 07:06:11;;;;;;;14.90;7.50;;;;;;;9.62;100.00;102076.31;6018274;28;20406;-68
2023/05/25 07:09:06;;;;;;;20.27;6.78;;;;;;;9.64;100.00;102063.00;6024562;28;20027;-67
2023/05/25 07:12:01;;;;;;;16.07;7.43;;;;;;;9.64;100.00;102063.84;6027680;28;20409;-68
2023/05/25 07:14:57;;;;;;;13.27;6.53;;;;;;;9.58;100.00;102077.50;6024992;28;20023;-68
2023/05/25 07:17:52;;;;;;;16.02;7.97;;;;;;;9.64;100.00;102070.94;6015335;28;20117;-69
2023/05/25 07:20:47;;;;;;;18.00;7.13;;;;;;;9.82;100.00;102064.34;6018425;28;20031;-68
2023/05/25 07:23:43;;;;;;;15.73;6.47;;;;;;;9.95;100.00;102070.47;6018614;28;20026;-69
2023/05/25 07:26:39;;;;;;;22.67;8.00;;;;;;;9.85;100.00;102072.94;6025429;28;20026;-66
2023/05/25 07:29:34;;;;;;;22.23;7.70;;;;;;;9.98;100.00;102079.06;6025937;28;20030;-67
2023/05/25 07:32:29;;;;;;;16.17;7.33;;;;;;;10.03;100.00;102082.22;6018007;28;20120;-68
2023/05/25 07:35:25;;;;;;;15.47;6.37;;;;;;;10.18;100.00;102076.81;6028223;28;20121;-69
2023/05/25 07:38:20;;;;;;;14.82;7.03;;;;;;;10.08;100.00;102084.56;6025520;28;20030;-67
2023/05/25 07:41:16;;;;;;;16.30;6.20;;;;;;;10.12;100.00;102080.72;6021238;28;20030;-68
2023/05/25 07:44:11;;;;;;;15.87;6.70;;;;;;;10.18;100.00;102076.81;6027571;28;20091;-67
2023/05/25 07:47:06;;;;;;;16.93;6.97;;;;;;;10.35;99.91;102089.72;6019415;28;20285;-69
2023/05/25 07:50:02;;;;;;;18.03;7.30;;;;;;;10.34;99.03;102086.22;6027946;28;20018;-67
2023/05/25 07:52:58;;;;;;;20.45;7.90;;;;;;;10.36;98.88;102091.41;6027852;28;20274;-67
2023/05/25 07:55:53;;;;;;;22.05;7.47;;;;;;;10.23;99.64;102088.78;6029744;28;20109;-67
2023/05/25 07:58:49;;;;;;;18.50;7.10;;;;;;;10.34;99.02;102096.81;6035083;28;20034;-68
2023/05/25 08:01:44;;;;;;;23.40;7.93;;;;;;;10.49;99.79;102081.63;6025314;28;20642;-67
2023/05/25 08:04:39;;;;;;;16.50;7.30;;;;;;;10.54;98.77;102085.63;6020754;28;20270;-66
2023/05/25 08:07:35;;;;;;;15.70;7.57;;;;;;;10.42;98.68;102088.31;6034816;28;20093;-67
2023/05/25 08:10:31;;;;;;;21.52;7.20;;;;;;;10.46;98.93;102095.91;6015900;28;20485;-66
2023/05/25 08:13:26;;;;;;;20.30;7.28;;;;;;;10.63;99.04;102094.69;6028272;28;20045;-66
2023/05/25 08:16:21;;;;;;;19.93;7.63;;;;;;;10.81;97.38;102090.72;6018571;28;20034;-68
2023/05/25 08:19:17;;;;;;;22.10;7.73;;;;;;;10.87;96.77;102095.53;6015053;28;20052;-67
2023/05/25 08:22:12;;;;;;;17.57;6.97;;;;;;;11.02;94.82;102085.59;6025976;28;20026;-67
2023/05/25 08:25:07;;;;;;;20.97;7.87;;;;;;;10.96;95.21;102084.25;6022174;28;20033;-66
2023/05/25 08:28:03;;;;;;;16.13;7.45;;;;;;;10.87;97.01;102084.09;6040867;28;20197;-67
2023/05/25 08:30:58;;;;;;;18.90;7.53;;;;;;;11.04;97.60;102088.97;6027881;28;20058;-68
2023/05/25 08:33:53;;;;;;;20.87;7.67;;;;;;;11.10;95.43;102099.13;6028062;28;20050;-66
2023/05/25 08:36:48;;;;;;;16.57;7.27;;;;;;;11.23;95.29;102097.25;6041188;28;20032;-68
2023/05/25 08:39:44;;;;;;;15.50;6.37;;;;;;;11.28;95.09;102100.38;6022721;28;20027;-69
2023/05/25 08:42:41;;;;;;;20.00;6.68;;;;;;;11.68;92.25;102082.25;6029561;28;20057;-68
2023/05/25 08:45:37;;;;;;;16.35;6.07;;;;;;;11.93;90.91;102074.06;6024163;28;20177;-66
2023/05/25 08:48:36;;;;;;;14.03;5.13;;;;;;;12.91;86.81;102089.94;6025844;28;20030;-68
2023/05/25 08:51:36;;;;;;;12.40;5.57;;;;;;;13.55;82.55;102079.22;6030212;28;20374;-69
2023/05/25 08:54:36;;;;;;;18.67;6.05;;;;;;;13.13;82.25;102092.53;6016341;28;20048;-69
2023/05/25 08:57:42;;;;;;;14.57;6.18;;;;;;;12.56;84.24;102078.69;6021324;28;20037;-67
2023/05/25 09:00:41;;;;;;;12.98;5.78;;;;;;;12.31;87.17;102081.66;6030876;28;20057;-68
2023/05/25 09:03:37;;;;;;;15.80;6.05;;;;;;;12.42;85.73;102095.78;6025568;28;20034;-67
2023/05/25 09:06:35;;;;;;;13.73;5.70;;;;;;;12.17;87.84;102090.75;6024057;28;20022;-68
2023/05/25 09:09:33;;;;;;;14.20;5.65;;;;;;;12.24;87.62;102102.56;6027039;28;20034;-66
2023/05/25 09:12:29;;;;;;;13.55;5.25;;;;;;;12.55;87.36;102103.63;6026915;28;20030;-67
2023/05/25 09:15:25;;;;;;;15.95;5.28;;;;;;;12.65;85.08;102101.91;6025674;28;20170;-67
2023/05/25 09:18:20;;;;;;;14.70;5.00;;;;;;;13.04;84.45;102103.91;6017920;28;20023;-68
2023/05/25 09:21:15;;;;;;;9.63;4.00;;;;;;;12.95;84.84;102099.38;6025798;28;21045;-68
2023/05/25 09:24:11;;;;;;;15.87;4.80;;;;;;;13.08;84.86;102100.06;6023535;28;20281;-67
2023/05/25 09:27:10;;;;;;;11.60;5.20;;;;;;;12.71;85.43;102093.41;6024085;28;20034;-68
2023/05/25 09:30:06;;;;;;;11.77;4.85;;;;;;;12.82;86.01;102098.69;6023213;28;20031;-67
2023/05/25 09:33:11;;;;;;;14.63;5.30;;;;;;;12.71;86.66;102088.09;6029350;28;20033;-67
2023/05/25 09:36:06;;;;;;;12.57;5.43;;;;;;;12.63;86.07;102090.53;6022062;28;20699;-68
2023/05/25 09:39:02;;;;;;;13.07;4.97;;;;;;;12.55;87.00;102108.94;6021266;28;20038;-68
2023/05/25 09:41:58;;;;;;;14.02;4.65;;;;;;;12.92;86.04;102094.28;6021349;28;20033;-68
2023/05/25 09:44:53;;;;;;;9.55;4.80;;;;;;;13.00;85.48;102097.16;6014434;28;20421;-68
2023/05/25 09:47:48;;;;;;;10.07;4.60;;;;;;;13.16;85.23;102095.91;6017555;28;20482;-67
2023/05/25 09:50:44;;;;;;;12.40;5.00;;;;;;;13.18;84.44;102099.31;6028903;28;20037;-69
2023/05/25 09:53:40;;;;;;;11.90;4.30;;;;;;;13.04;84.06;102101.25;6024792;28;20089;-69
2023/05/25 09:56:35;;;;;;;12.70;5.78;;;;;;;13.04;83.19;102119.91;6030031;28;20122;-68
2023/05/25 09:59:31;;;;;;;12.75;4.75;;;;;;;13.24;83.47;102125.41;6021478;28;20129;-68
2023/05/25 10:02:26;;;;;;;16.15;5.13;;;;;;;13.38;82.01;102122.44;6030057;28;20034;-69
2023/05/25 10:05:22;;;;;;;10.73;4.78;;;;;;;13.49;82.25;102109.91;6022898;28;20038;-68
2023/05/25 10:08:20;;;;;;;12.65;4.80;;;;;;;13.90;78.47;102113.50;6025993;28;20113;-68
2023/05/25 10:11:15;;;;;;;13.43;4.25;;;;;;;14.10;78.84;102116.13;6025809;28;20038;-69
2023/05/25 10:14:14;;;;;;;14.17;4.40;;;;;;;14.18;77.20;102110.97;6026785;28;20389;-68
2023/05/25 10:17:10;;;;;;;13.90;4.35;;;;;;;14.17;79.17;102101.25;6029027;28;20091;-67
2023/05/25 10:20:06;;;;;;;10.48;4.28;;;;;;;14.23;78.11;102107.88;6033426;28;20026;-67
2023/05/25 10:23:13;;;;;;;12.18;4.20;;;;;;;14.34;78.23;102118.47;6021968;28;20474;-68
2023/05/25 10:26:10;;;;;;;7.93;4.15;;;;;;;14.36;75.42;102123.69;6024913;28;20164;-68
2023/05/25 10:29:06;;;;;;;11.18;4.10;;;;;;;14.70;75.98;102127.72;6027570;28;20057;-68
2023/05/25 10:32:03;;;;;;;12.57;4.47;;;;;;;14.65;76.20;102116.56;6031338;28;20483;-67
2023/05/25 10:34:59;;;;;;;12.15;3.83;;;;;;;14.51;76.16;102117.00;6024798;28;20053;-67
2023/05/25 10:37:55;;;;;;;11.13;4.63;;;;;;;14.43;75.18;102114.16;6028494;28;20037;-67
2023/05/25 10:40:52;;;;;;;9.70;4.43;;;;;;;14.62;74.10;102133.72;6019356;28;20445;-67
2023/05/25 10:43:48;;;;;;;11.80;4.72;;;;;;;14.62;75.56;102132.91;6015261;28;20034;-69
2023/05/25 10:46:44;;;;;;;9.77;4.00;;;;;;;14.81;74.67;102122.25;6032422;28;20069;-68
2023/05/25 10:49:57;;;;;;;10.77;5.40;;;;;;;14.63;75.44;102134.56;6026088;28;20022;-68
2023/05/25 10:53:00;;;;;;;16.15;4.72;;;;;;;14.83;73.14;102130.97;6018344;28;20104;-69
2023/05/25 10:56:03;;;;;;;9.98;4.05;;;;;;;15.10;72.08;102128.44;6026312;28;20026;-68
2023/05/25 10:58:59;;;;;;;10.23;4.28;;;;;;;15.67;69.43;102121.38;6026123;28;20037;-68
2023/05/25 11:01:54;;;;;;;11.45;4.10;;;;;;;16.08;69.09;102095.03;6020573;28;20105;-68
2023/05/25 11:04:50;;;;;;;10.93;4.10;;;;;;;16.52;67.37;102112.13;6020789;28;20025;-68
2023/05/25 11:07:55;;;;;;;11.40;4.53;;;;;;;16.05;67.85;102110.53;6036795;28;20022;-68
2023/05/25 11:10:51;;;;;;;10.82;4.35;;;;;;;15.67;70.18;102110.66;6025052;28;20450;-68
2023/05/25 11:13:48;;;;;;;10.20;4.68;;;;;;;15.47;70.44;102102.69;6028817;28;20120;-68
2023/05/25 11:17:03;;;;;;;9.77;3.80;;;;;;;15.91;69.25;102103.00;6018102;28;20045;-67
2023/05/25 11:20:01;;;;;;;9.10;4.05;;;;;;;16.19;67.33;102106.53;6016275;28;20038;-68
2023/05/25 11:22:56;;;;;;;13.80;3.97;;;;;;;15.60;69.15;102101.56;6029338;28;20037;-68
2023/05/25 11:25:52;;;;;;;7.85;3.72;;;;;;;15.31;69.51;102115.78;6026435;28;20030;-67
2023/05/25 11:28:47;;;;;;;8.03;3.90;;;;;;;15.52;69.46;102117.47;6029230;28;20026;-69
2023/05/25 11:31:43;;;;;;;9.70;4.20;;;;;;;15.57;69.12;102115.22;6026570;28;20450;-69
2023/05/25 11:34:40;;;;;;;10.90;4.30;;;;;;;15.30;70.35;102091.88;6033361;28;20030;-68
2023/05/25 11:37:36;;;;;;;13.35;4.20;;;;;;;15.10;70.85;102101.72;6027241;28;20540;-69
2023/05/25 11:40:31;;;;;;;10.55;3.83;;;;;;;14.92;71.90;102108.72;6019658;28;20039;-67
2023/05/25 11:43:28;;;;;;;8.55;3.97;;;;;;;14.95;71.29;102103.13;6018220;28;20084;-68
2023/05/25 11:46:23;;;;;;;12.55;4.22;;;;;;;15.14;70.28;102103.13;6020581;28;20034;-68
2023/05/25 11:49:20;;;;;;;9.35;4.10;;;;;;;15.55;67.94;102103.78;6015123;28;20434;-67
2023/05/25 11:52:18;;;;;;;9.70;4.38;;;;;;;15.73;66.88;102091.38;6025947;28;20030;-68
2023/05/25 11:55:13;;;;;;;8.95;3.75;;;;;;;15.75;66.51;102092.06;6023740;28;20038;-67
2023/05/25 11:58:08;;;;;;;8.38;3.22;;;;;;;15.81;68.37;102113.75;6021386;28;20080;-67
2023/05/25 12:01:19;;;;;;;11.10;3.73;;;;;;;15.97;69.80;102113.13;6023501;28;20026;-68
2023/05/25 12:04:15;;;;;;;11.05;4.22;;;;;;;15.57;69.60;102101.84;6019815;28;20320;-69
2023/05/25 12:07:11;;;;;;;10.47;4.00;;;;;;;15.56;70.12;102124.22;6023670;28;20587;-68
2023/05/25 12:10:07;;;;;;;11.35;4.20;;;;;;;15.45;70.52;102118.00;6020708;28;20174;-68
2023/05/25 12:13:03;;;;;;;11.30;4.03;;;;;;;15.39;70.16;102121.25;6018470;28;20405;-68
2023/05/25 12:15:59;;;;;;;9.20;3.42;;;;;;;15.57;70.55;102104.50;6015971;28;20073;-68
2023/05/25 12:18:54;;;;;;;10.20;3.13;;;;;;;15.64;68.80;102108.28;6023051;28;20030;-69
2023/05/25 12:21:50;;;;;;;8.50;3.60;;;;;;;16.01;65.85;102085.91;6024372;28;20042;-67
2023/05/25 12:24:45;;;;;;;6.85;3.65;;;;;;;16.47;64.95;102084.94;6020478;28;20027;-69
2023/05/25 12:27:41;;;;;;;6.40;3.10;;;;;;;16.46;64.52;102083.28;6018553;28;20049;-68
2023/05/25 12:30:36;;;;;;;7.57;3.92;;;;;;;17.01;64.59;102083.19;6020021;28;20038;-68
2023/05/25 12:33:31;;;;;;;9.53;3.80;;;;;;;17.56;61.15;102081.13;6020163;28;20034;-68
2023/05/25 12:36:39;;;;;;;7.47;3.27;;;;;;;18.07;59.96;102078.41;6024020;28;20328;-68
2023/05/25 12:39:37;;;;;;;10.52;4.10;;;;;;;18.13;57.48;102077.72;6012519;28;20022;-68
2023/05/25 12:42:33;;;;;;;7.65;4.15;;;;;;;17.87;59.05;102076.09;6026352;28;20390;-68
2023/05/25 12:45:28;;;;;;;9.38;3.97;;;;;;;17.57;59.05;102064.03;6018482;28;20072;-68
2023/05/25 12:48:26;;;;;;;7.07;3.58;;;;;;;17.40;58.82;102057.69;6017281;28;20153;-67
2023/05/25 12:51:24;;;;;;;8.60;3.75;;;;;;;17.48;60.41;102055.06;6025963;28;20034;-68
2023/05/25 12:54:43;;;;;;;10.88;3.85;;;;;;;18.10;59.21;102066.50;6023330;28;21357;-68
2023/05/25 12:57:38;;;;;;;7.68;3.67;;;;;;;18.22;58.99;102067.88;6026549;28;20087;-68
2023/05/25 13:00:36;;;;;;;10.77;4.30;;;;;;;18.44;57.72;102069.97;6021249;28;20038;-68
2023/05/25 13:03:32;;;;;;;8.60;3.75;;;;;;;18.70;57.55;102059.97;6012079;28;20040;-68
2023/05/25 13:06:27;;;;;;;9.95;3.55;;;;;;;18.73;55.41;102065.00;6024277;28;20032;-69
2023/05/25 13:09:25;;;;;;;9.20;3.63;;;;;;;18.85;55.76;102069.06;6024604;28;20073;-68
2023/05/25 13:12:21;;;;;;;6.15;3.10;;;;;;;18.90;54.95;102055.97;6007164;28;20433;-68
2023/05/25 13:15:19;;;;;;;8.20;3.15;;;;;;;18.75;54.04;102052.22;6023842;28;20110;-69
2023/05/25 13:18:15;;;;;;;6.88;3.63;;;;;;;18.21;56.66;102048.22;6035531;28;20085;-67
2023/05/25 13:21:10;;;;;;;8.00;3.53;;;;;;;18.03;57.70;102043.97;6029362;28;20030;-68
2023/05/25 13:24:06;;;;;;;7.40;3.40;;;;;;;17.76;59.95;102053.91;6027593;28;20269;-68
2023/05/25 13:27:01;;;;;;;7.28;2.90;;;;;;;18.26;56.88;102040.50;6032976;28;20108;-69
2023/05/25 13:29:57;;;;;;;8.63;3.73;;;;;;;19.08;56.61;102028.88;6029119;28;20030;-69
2023/05/25 13:32:52;;;;;;;10.10;2.97;;;;;;;19.16;55.32;102030.75;6027194;28;20349;-68